sensor_id;sensor_type;location;lat;lon;timestamp;temperature;humidity
12123;DHT22;6125;59.628;17.852;2023-02-20T00:01:05;-2.30;99.90
12123;DHT22;6125;59.628;17.852;2023-02-20T00:03:32;-2.30;99.90
12123;DHT22;6125;59.628;17.852;2023-02-20T00:06:00;-2.20;99.90
12123;DHT22;6125;59.628;17.852;2023-02-20T00:08:27;-2.30;99.90
12123;DHT22;6125;59.628;17.852;2023-02-20T00:10:54;-2.20;99.90
12123;DHT22;6125;59.628;17.852;2023-02-20T00:13:21;-2.30;99.90
12123;DHT22;6125;59.628;17.852;2023-02-20T00:15:48;-2.30;99.90
12123;DHT22;6125;59.628;17.852;2023-02-20T00:18:15;-2.30;99.90
12123;DHT22;6125;59.628;17.852;2023-02-20T00:20:43;-2.30;99.90
12123;DHT22;6125;59.628;17.852;2023-02-20T00:23:11;-2.30;99.90
12123;DHT22;6125;59.628;17.852;2023-02-20T00:25:38;-2.30;99.90
12123;DHT22;6125;59.628;17.852;2023-02-20T00:28:05;-2.30;99.90
12123;DHT22;6125;59.628;17.852;2023-02-20T00:30:32;-2.30;99.90
12123;DHT22;6125;59.628;17.852;2023-02-20T00:33:00;-2.30;99.90
12123;DHT22;6125;59.628;17.852;2023-02-20T00:35:27;-2.30;99.90
12123;DHT22;6125;59.628;17.852;2023-02-20T00:37:54;-2.30;99.90
12123;DHT22;6125;59.628;17.852;2023-02-20T00:40:24;-2.30;99.90
12123;DHT22;6125;59.628;17.852;2023-02-20T00:42:51;-2.30;99.90
12123;DHT22;6125;59.628;17.852;2023-02-20T00:45:19;-2.30;99.90
12123;DHT22;6125;59.628;17.852;2023-02-20T00:47:46;-2.30;99.90
12123;DHT22;6125;59.628;17.852;2023-02-20T00:50:14;-2.30;99.90
12123;DHT22;6125;59.628;17.852;2023-02-20T00:52:49;-2.30;99.90
12123;DHT22;6125;59.628;17.852;2023-02-20T00:55:16;-2.30;99.90
12123;DHT22;6125;59.628;17.852;2023-02-20T00:57:45;-2.30;99.90
12123;DHT22;6125;59.628;17.852;2023-02-20T01:00:18;-2.30;99.90
12123;DHT22;6125;59.628;17.852;2023-02-20T01:02:45;-2.30;99.90
12123;DHT22;6125;59.628;17.852;2023-02-20T01:05:12;-2.30;99.90
12123;DHT22;6125;59.628;17.852;2023-02-20T01:07:39;-2.20;99.90
12123;DHT22;6125;59.628;17.852;2023-02-20T01:10:07;-2.30;99.90
12123;DHT22;6125;59.628;17.852;2023-02-20T01:12:35;-2.30;99.90
12123;DHT22;6125;59.628;17.852;2023-02-20T01:15:05;-2.30;99.90
12123;DHT22;6125;59.628;17.852;2023-02-20T01:17:32;-2.30;99.90
12123;DHT22;6125;59.628;17.852;2023-02-20T01:20:00;-2.30;99.90
12123;DHT22;6125;59.628;17.852;2023-02-20T01:22:27;-2.30;99.90
12123;DHT22;6125;59.628;17.852;2023-02-20T01:24:54;-2.40;99.90
12123;DHT22;6125;59.628;17.852;2023-02-20T01:27:21;-2.30;99.90
12123;DHT22;6125;59.628;17.852;2023-02-20T01:29:48;-2.30;99.90
12123;DHT22;6125;59.628;17.852;2023-02-20T01:32:16;-2.40;99.90
12123;DHT22;6125;59.628;17.852;2023-02-20T01:34:43;-2.30;99.90
12123;DHT22;6125;59.628;17.852;2023-02-20T01:37:11;-2.40;99.90
12123;DHT22;6125;59.628;17.852;2023-02-20T01:39:39;-2.30;99.90
12123;DHT22;6125;59.628;17.852;2023-02-20T01:42:08;-2.40;99.90
12123;DHT22;6125;59.628;17.852;2023-02-20T01:44:38;-2.40;99.90
12123;DHT22;6125;59.628;17.852;2023-02-20T01:47:07;-2.40;99.90
12123;DHT22;6125;59.628;17.852;2023-02-20T01:49:40;-2.30;99.90
12123;DHT22;6125;59.628;17.852;2023-02-20T01:52:12;-2.30;99.90
12123;DHT22;6125;59.628;17.852;2023-02-20T01:54:42;-2.30;99.90
12123;DHT22;6125;59.628;17.852;2023-02-20T01:57:20;-2.30;99.90
12123;DHT22;6125;59.628;17.852;2023-02-20T01:59:49;-2.30;99.90
12123;DHT22;6125;59.628;17.852;2023-02-20T02:02:17;-2.30;99.90
12123;DHT22;6125;59.628;17.852;2023-02-20T02:04:48;-2.20;99.90
12123;DHT22;6125;59.628;17.852;2023-02-20T02:07:16;-2.20;99.90
12123;DHT22;6125;59.628;17.852;2023-02-20T02:09:48;-2.20;99.90
12123;DHT22;6125;59.628;17.852;2023-02-20T02:12:17;-2.20;99.90
12123;DHT22;6125;59.628;17.852;2023-02-20T02:14:44;-2.20;99.90
12123;DHT22;6125;59.628;17.852;2023-02-20T02:20:30;-2.20;99.90
12123;DHT22;6125;59.628;17.852;2023-02-20T02:26:09;-2.20;99.90
12123;DHT22;6125;59.628;17.852;2023-02-20T02:32:08;-2.20;99.90
12123;DHT22;6125;59.628;17.852;2023-02-20T02:35:09;-2.20;99.90
12123;DHT22;6125;59.628;17.852;2023-02-20T02:37:46;-2.10;99.90
12123;DHT22;6125;59.628;17.852;2023-02-20T02:40:19;-2.20;99.90
12123;DHT22;6125;59.628;17.852;2023-02-20T02:42:51;-2.10;99.90
12123;DHT22;6125;59.628;17.852;2023-02-20T02:45:28;-2.10;99.90
12123;DHT22;6125;59.628;17.852;2023-02-20T02:48:05;-2.10;99.90
12123;DHT22;6125;59.628;17.852;2023-02-20T02:50:36;-2.20;99.90
12123;DHT22;6125;59.628;17.852;2023-02-20T02:53:07;-2.10;99.90
12123;DHT22;6125;59.628;17.852;2023-02-20T02:55:35;-2.10;99.90
12123;DHT22;6125;59.628;17.852;2023-02-20T02:58:03;-2.20;99.90
12123;DHT22;6125;59.628;17.852;2023-02-20T03:00:34;-2.10;99.90
12123;DHT22;6125;59.628;17.852;2023-02-20T03:03:06;-2.10;99.90
12123;DHT22;6125;59.628;17.852;2023-02-20T03:05:38;-2.10;99.90
12123;DHT22;6125;59.628;17.852;2023-02-20T03:08:17;-2.20;99.90
12123;DHT22;6125;59.628;17.852;2023-02-20T03:10:58;-2.10;99.90
12123;DHT22;6125;59.628;17.852;2023-02-20T03:13:28;-2.00;99.90
12123;DHT22;6125;59.628;17.852;2023-02-20T03:16:15;-2.00;99.90
12123;DHT22;6125;59.628;17.852;2023-02-20T03:18:44;-2.00;99.90
12123;DHT22;6125;59.628;17.852;2023-02-20T03:21:14;-2.00;99.90
12123;DHT22;6125;59.628;17.852;2023-02-20T03:23:49;-2.00;99.90
12123;DHT22;6125;59.628;17.852;2023-02-20T03:26:20;-2.00;99.90
12123;DHT22;6125;59.628;17.852;2023-02-20T03:28:52;-1.90;99.90
12123;DHT22;6125;59.628;17.852;2023-02-20T03:31:23;-1.90;99.90
12123;DHT22;6125;59.628;17.852;2023-02-20T03:33:56;-1.90;99.90
12123;DHT22;6125;59.628;17.852;2023-02-20T03:36:47;-1.90;99.90
12123;DHT22;6125;59.628;17.852;2023-02-20T03:39:38;-1.90;99.90
12123;DHT22;6125;59.628;17.852;2023-02-20T03:42:25;-1.80;99.90
12123;DHT22;6125;59.628;17.852;2023-02-20T03:45:12;-1.80;99.90
12123;DHT22;6125;59.628;17.852;2023-02-20T03:47:43;-1.80;99.90
12123;DHT22;6125;59.628;17.852;2023-02-20T03:50:12;-1.80;99.90
12123;DHT22;6125;59.628;17.852;2023-02-20T03:52:39;-1.80;99.90
12123;DHT22;6125;59.628;17.852;2023-02-20T03:55:08;-1.80;99.90
12123;DHT22;6125;59.628;17.852;2023-02-20T03:57:38;-1.80;99.90
12123;DHT22;6125;59.628;17.852;2023-02-20T04:00:09;-1.80;99.90
12123;DHT22;6125;59.628;17.852;2023-02-20T04:02:41;-1.70;99.90
12123;DHT22;6125;59.628;17.852;2023-02-20T04:05:13;-1.70;99.90
12123;DHT22;6125;59.628;17.852;2023-02-20T04:07:44;-1.70;99.90
12123;DHT22;6125;59.628;17.852;2023-02-20T04:10:19;-1.70;99.90
12123;DHT22;6125;59.628;17.852;2023-02-20T04:12:48;-1.70;99.90
12123;DHT22;6125;59.628;17.852;2023-02-20T04:15:18;-1.70;99.90
12123;DHT22;6125;59.628;17.852;2023-02-20T04:17:49;-1.60;99.90
12123;DHT22;6125;59.628;17.852;2023-02-20T04:20:17;-1.60;99.90
12123;DHT22;6125;59.628;17.852;2023-02-20T04:22:46;-1.60;99.90
12123;DHT22;6125;59.628;17.852;2023-02-20T04:25:20;-1.60;99.90
12123;DHT22;6125;59.628;17.852;2023-02-20T04:27:51;-1.50;99.90
12123;DHT22;6125;59.628;17.852;2023-02-20T04:30:18;-1.50;99.90
12123;DHT22;6125;59.628;17.852;2023-02-20T04:32:46;-1.50;99.90
12123;DHT22;6125;59.628;17.852;2023-02-20T04:35:17;-1.40;99.90
12123;DHT22;6125;59.628;17.852;2023-02-20T04:37:44;-1.40;99.90
12123;DHT22;6125;59.628;17.852;2023-02-20T04:40:14;-1.40;99.90
12123;DHT22;6125;59.628;17.852;2023-02-20T04:42:43;-1.40;99.90
12123;DHT22;6125;59.628;17.852;2023-02-20T04:45:10;-1.40;99.90
12123;DHT22;6125;59.628;17.852;2023-02-20T04:47:37;-1.40;99.90
12123;DHT22;6125;59.628;17.852;2023-02-20T04:50:05;-1.40;99.90
12123;DHT22;6125;59.628;17.852;2023-02-20T04:52:32;-1.30;99.90
12123;DHT22;6125;59.628;17.852;2023-02-20T04:54:59;-1.40;99.90
12123;DHT22;6125;59.628;17.852;2023-02-20T04:57:26;-1.30;99.90
12123;DHT22;6125;59.628;17.852;2023-02-20T04:59:54;-1.20;99.90
12123;DHT22;6125;59.628;17.852;2023-02-20T05:02:21;-1.30;99.90
12123;DHT22;6125;59.628;17.852;2023-02-20T05:04:50;-1.20;99.90
12123;DHT22;6125;59.628;17.852;2023-02-20T05:07:17;-1.20;99.90
12123;DHT22;6125;59.628;17.852;2023-02-20T05:09:44;-1.20;99.90
12123;DHT22;6125;59.628;17.852;2023-02-20T05:12:11;-1.20;99.90
12123;DHT22;6125;59.628;17.852;2023-02-20T05:14:38;-1.20;99.90
12123;DHT22;6125;59.628;17.852;2023-02-20T05:17:06;-1.20;99.90
12123;DHT22;6125;59.628;17.852;2023-02-20T05:19:33;-1.10;99.90
12123;DHT22;6125;59.628;17.852;2023-02-20T05:22:01;-1.10;99.90
12123;DHT22;6125;59.628;17.852;2023-02-20T05:24:46;-1.10;99.90
12123;DHT22;6125;59.628;17.852;2023-02-20T05:27:15;-1.00;99.90
12123;DHT22;6125;59.628;17.852;2023-02-20T05:29:46;-1.10;99.90
12123;DHT22;6125;59.628;17.852;2023-02-20T05:32:16;-1.00;99.90
12123;DHT22;6125;59.628;17.852;2023-02-20T05:34:43;-1.00;99.90
12123;DHT22;6125;59.628;17.852;2023-02-20T05:37:12;-1.00;99.90
12123;DHT22;6125;59.628;17.852;2023-02-20T05:39:39;-1.00;99.90
12123;DHT22;6125;59.628;17.852;2023-02-20T05:42:06;-1.00;99.90
12123;DHT22;6125;59.628;17.852;2023-02-20T05:44:34;-0.90;99.90
12123;DHT22;6125;59.628;17.852;2023-02-20T05:47:02;-0.90;99.90
12123;DHT22;6125;59.628;17.852;2023-02-20T05:49:30;-0.80;99.90
12123;DHT22;6125;59.628;17.852;2023-02-20T05:51:59;-0.90;99.90
12123;DHT22;6125;59.628;17.852;2023-02-20T05:54:27;-0.80;99.90
12123;DHT22;6125;59.628;17.852;2023-02-20T05:56:54;-0.90;99.90
12123;DHT22;6125;59.628;17.852;2023-02-20T05:59:23;-0.90;99.90
12123;DHT22;6125;59.628;17.852;2023-02-20T06:01:55;-0.90;99.90
12123;DHT22;6125;59.628;17.852;2023-02-20T06:04:22;-1.00;99.90
12123;DHT22;6125;59.628;17.852;2023-02-20T06:06:51;-1.00;99.90
12123;DHT22;6125;59.628;17.852;2023-02-20T06:09:18;-1.00;99.90
12123;DHT22;6125;59.628;17.852;2023-02-20T06:11:48;-1.10;99.90
12123;DHT22;6125;59.628;17.852;2023-02-20T06:14:16;-1.20;99.90
12123;DHT22;6125;59.628;17.852;2023-02-20T06:16:44;-1.30;99.90
12123;DHT22;6125;59.628;17.852;2023-02-20T06:19:16;-1.30;99.90
12123;DHT22;6125;59.628;17.852;2023-02-20T06:21:44;-1.30;99.90
12123;DHT22;6125;59.628;17.852;2023-02-20T06:24:13;-1.40;99.90
12123;DHT22;6125;59.628;17.852;2023-02-20T06:26:41;-1.40;99.90
12123;DHT22;6125;59.628;17.852;2023-02-20T06:29:08;-1.40;99.90
12123;DHT22;6125;59.628;17.852;2023-02-20T06:31:35;-1.50;99.90
12123;DHT22;6125;59.628;17.852;2023-02-20T06:34:03;-1.50;99.90
12123;DHT22;6125;59.628;17.852;2023-02-20T06:36:33;-1.50;99.90
12123;DHT22;6125;59.628;17.852;2023-02-20T06:39:00;-1.50;99.90
12123;DHT22;6125;59.628;17.852;2023-02-20T06:41:29;-1.60;99.90
12123;DHT22;6125;59.628;17.852;2023-02-20T06:43:56;-1.60;99.90
12123;DHT22;6125;59.628;17.852;2023-02-20T06:46:23;-1.60;99.90
12123;DHT22;6125;59.628;17.852;2023-02-20T06:48:52;-1.60;99.90
12123;DHT22;6125;59.628;17.852;2023-02-20T06:51:21;-1.60;99.90
12123;DHT22;6125;59.628;17.852;2023-02-20T06:53:49;-1.60;99.90
12123;DHT22;6125;59.628;17.852;2023-02-20T06:56:17;-1.60;99.90
12123;DHT22;6125;59.628;17.852;2023-02-20T06:58:48;-1.60;99.90
12123;DHT22;6125;59.628;17.852;2023-02-20T07:01:15;-1.50;99.90
12123;DHT22;6125;59.628;17.852;2023-02-20T07:03:43;-1.50;99.90
12123;DHT22;6125;59.628;17.852;2023-02-20T07:06:10;-1.50;99.90
12123;DHT22;6125;59.628;17.852;2023-02-20T07:08:37;-1.50;99.90
12123;DHT22;6125;59.628;17.852;2023-02-20T07:11:04;-1.50;99.90
12123;DHT22;6125;59.628;17.852;2023-02-20T07:13:32;-1.50;99.90
12123;DHT22;6125;59.628;17.852;2023-02-20T07:16:00;-1.40;99.90
12123;DHT22;6125;59.628;17.852;2023-02-20T07:18:27;-1.40;99.90
12123;DHT22;6125;59.628;17.852;2023-02-20T07:20:54;-1.30;99.90
12123;DHT22;6125;59.628;17.852;2023-02-20T07:23:22;-1.30;99.90
12123;DHT22;6125;59.628;17.852;2023-02-20T07:25:49;-1.30;99.90
12123;DHT22;6125;59.628;17.852;2023-02-20T07:28:17;-1.20;99.90
12123;DHT22;6125;59.628;17.852;2023-02-20T07:30:45;-1.10;99.90
12123;DHT22;6125;59.628;17.852;2023-02-20T07:33:15;-1.10;99.90
12123;DHT22;6125;59.628;17.852;2023-02-20T07:35:43;-1.10;99.90
12123;DHT22;6125;59.628;17.852;2023-02-20T07:38:11;-1.00;99.90
12123;DHT22;6125;59.628;17.852;2023-02-20T07:40:38;-1.00;99.90
12123;DHT22;6125;59.628;17.852;2023-02-20T07:43:05;-0.90;99.90
12123;DHT22;6125;59.628;17.852;2023-02-20T07:45:32;-0.90;99.90
12123;DHT22;6125;59.628;17.852;2023-02-20T07:47:59;-0.90;99.90
12123;DHT22;6125;59.628;17.852;2023-02-20T07:50:28;-0.80;99.90
12123;DHT22;6125;59.628;17.852;2023-02-20T07:52:55;-0.80;99.90
12123;DHT22;6125;59.628;17.852;2023-02-20T07:55:22;-0.70;99.90
12123;DHT22;6125;59.628;17.852;2023-02-20T07:57:50;-0.70;99.90
12123;DHT22;6125;59.628;17.852;2023-02-20T08:00:19;-0.60;99.90
12123;DHT22;6125;59.628;17.852;2023-02-20T08:02:48;-0.50;99.90
12123;DHT22;6125;59.628;17.852;2023-02-20T08:05:15;-0.50;99.90
12123;DHT22;6125;59.628;17.852;2023-02-20T08:07:48;-0.50;99.90
12123;DHT22;6125;59.628;17.852;2023-02-20T08:10:17;-0.40;99.90
12123;DHT22;6125;59.628;17.852;2023-02-20T08:12:45;-0.40;99.90
12123;DHT22;6125;59.628;17.852;2023-02-20T08:15:12;-0.30;99.90
12123;DHT22;6125;59.628;17.852;2023-02-20T08:17:40;-0.30;99.90
12123;DHT22;6125;59.628;17.852;2023-02-20T08:20:08;-0.20;99.90
12123;DHT22;6125;59.628;17.852;2023-02-20T08:22:35;-0.10;99.90
12123;DHT22;6125;59.628;17.852;2023-02-20T08:25:05;-0.10;99.90
12123;DHT22;6125;59.628;17.852;2023-02-20T08:27:32;0.00;99.90
12123;DHT22;6125;59.628;17.852;2023-02-20T08:30:03;0.10;99.90
12123;DHT22;6125;59.628;17.852;2023-02-20T08:32:30;0.10;99.90
12123;DHT22;6125;59.628;17.852;2023-02-20T08:34:57;0.20;99.90
12123;DHT22;6125;59.628;17.852;2023-02-20T08:37:24;0.20;99.90
12123;DHT22;6125;59.628;17.852;2023-02-20T08:39:51;0.30;99.90
12123;DHT22;6125;59.628;17.852;2023-02-20T08:42:20;0.40;99.90
12123;DHT22;6125;59.628;17.852;2023-02-20T08:44:47;0.50;99.90
12123;DHT22;6125;59.628;17.852;2023-02-20T08:47:18;0.50;99.90
12123;DHT22;6125;59.628;17.852;2023-02-20T08:49:46;0.60;99.90
12123;DHT22;6125;59.628;17.852;2023-02-20T08:52:13;0.70;99.90
12123;DHT22;6125;59.628;17.852;2023-02-20T08:54:43;0.70;99.90
12123;DHT22;6125;59.628;17.852;2023-02-20T08:57:10;0.80;99.90
12123;DHT22;6125;59.628;17.852;2023-02-20T08:59:47;0.90;99.90
12123;DHT22;6125;59.628;17.852;2023-02-20T09:02:16;1.00;99.90
12123;DHT22;6125;59.628;17.852;2023-02-20T09:04:44;1.00;99.90
12123;DHT22;6125;59.628;17.852;2023-02-20T09:07:12;1.10;99.90
12123;DHT22;6125;59.628;17.852;2023-02-20T09:09:39;1.10;99.90
12123;DHT22;6125;59.628;17.852;2023-02-20T09:12:07;1.10;99.90
12123;DHT22;6125;59.628;17.852;2023-02-20T09:14:35;1.10;99.90
12123;DHT22;6125;59.628;17.852;2023-02-20T09:17:04;1.10;99.90
12123;DHT22;6125;59.628;17.852;2023-02-20T09:19:31;1.10;99.90
12123;DHT22;6125;59.628;17.852;2023-02-20T09:21:58;1.10;99.90
12123;DHT22;6125;59.628;17.852;2023-02-20T09:24:25;1.00;99.90
12123;DHT22;6125;59.628;17.852;2023-02-20T09:26:56;1.00;99.90
12123;DHT22;6125;59.628;17.852;2023-02-20T09:29:23;1.00;99.90
12123;DHT22;6125;59.628;17.852;2023-02-20T09:31:50;1.00;99.90
12123;DHT22;6125;59.628;17.852;2023-02-20T09:34:19;1.00;99.90
12123;DHT22;6125;59.628;17.852;2023-02-20T09:36:46;1.00;99.90
12123;DHT22;6125;59.628;17.852;2023-02-20T09:39:13;1.10;99.90
12123;DHT22;6125;59.628;17.852;2023-02-20T09:41:55;1.10;99.90
12123;DHT22;6125;59.628;17.852;2023-02-20T09:44:29;1.20;99.90
12123;DHT22;6125;59.628;17.852;2023-02-20T09:47:04;1.20;99.90
12123;DHT22;6125;59.628;17.852;2023-02-20T09:49:41;1.30;99.90
12123;DHT22;6125;59.628;17.852;2023-02-20T09:52:12;1.30;99.90
12123;DHT22;6125;59.628;17.852;2023-02-20T09:54:44;1.40;99.90
12123;DHT22;6125;59.628;17.852;2023-02-20T09:57:14;1.40;99.90
12123;DHT22;6125;59.628;17.852;2023-02-20T09:59:45;1.50;99.90
12123;DHT22;6125;59.628;17.852;2023-02-20T10:02:16;1.60;99.90
12123;DHT22;6125;59.628;17.852;2023-02-20T10:04:48;1.70;99.90
12123;DHT22;6125;59.628;17.852;2023-02-20T10:07:22;1.80;99.90
12123;DHT22;6125;59.628;17.852;2023-02-20T10:09:50;1.90;99.90
12123;DHT22;6125;59.628;17.852;2023-02-20T10:12:24;2.00;99.90
12123;DHT22;6125;59.628;17.852;2023-02-20T10:15:13;2.20;99.90
12123;DHT22;6125;59.628;17.852;2023-02-20T10:17:51;2.30;99.90
12123;DHT22;6125;59.628;17.852;2023-02-20T10:20:29;2.40;99.90
12123;DHT22;6125;59.628;17.852;2023-02-20T10:23:04;2.60;99.90
12123;DHT22;6125;59.628;17.852;2023-02-20T10:25:38;2.70;99.90
12123;DHT22;6125;59.628;17.852;2023-02-20T10:28:08;2.80;99.90
12123;DHT22;6125;59.628;17.852;2023-02-20T10:30:39;2.80;99.90
12123;DHT22;6125;59.628;17.852;2023-02-20T10:33:16;2.90;99.90
12123;DHT22;6125;59.628;17.852;2023-02-20T10:35:49;3.00;99.90
12123;DHT22;6125;59.628;17.852;2023-02-20T10:38:22;3.10;99.90
12123;DHT22;6125;59.628;17.852;2023-02-20T10:40:55;3.10;99.90
12123;DHT22;6125;59.628;17.852;2023-02-20T10:43:29;3.00;99.90
12123;DHT22;6125;59.628;17.852;2023-02-20T10:46:03;3.00;99.90
12123;DHT22;6125;59.628;17.852;2023-02-20T10:48:33;3.10;99.90
12123;DHT22;6125;59.628;17.852;2023-02-20T10:51:06;3.30;99.90
12123;DHT22;6125;59.628;17.852;2023-02-20T10:53:38;3.50;99.90
12123;DHT22;6125;59.628;17.852;2023-02-20T10:56:09;3.70;99.90
12123;DHT22;6125;59.628;17.852;2023-02-20T10:58:40;3.70;99.90
12123;DHT22;6125;59.628;17.852;2023-02-20T11:01:11;3.50;99.90
12123;DHT22;6125;59.628;17.852;2023-02-20T11:03:45;3.30;99.90
12123;DHT22;6125;59.628;17.852;2023-02-20T11:06:17;3.20;99.90
12123;DHT22;6125;59.628;17.852;2023-02-20T11:08:45;3.10;99.90
12123;DHT22;6125;59.628;17.852;2023-02-20T11:11:23;3.10;99.90
12123;DHT22;6125;59.628;17.852;2023-02-20T11:13:51;3.10;99.90
12123;DHT22;6125;59.628;17.852;2023-02-20T11:16:23;3.10;99.90
12123;DHT22;6125;59.628;17.852;2023-02-20T11:19:00;3.20;99.90
12123;DHT22;6125;59.628;17.852;2023-02-20T11:21:41;3.30;99.90
12123;DHT22;6125;59.628;17.852;2023-02-20T11:24:31;3.30;99.90
12123;DHT22;6125;59.628;17.852;2023-02-20T11:27:13;3.30;99.90
12123;DHT22;6125;59.628;17.852;2023-02-20T11:29:47;3.30;99.90
12123;DHT22;6125;59.628;17.852;2023-02-20T11:32:27;3.40;99.90
12123;DHT22;6125;59.628;17.852;2023-02-20T11:35:24;3.50;99.90
12123;DHT22;6125;59.628;17.852;2023-02-20T11:41:22;3.70;99.90
12123;DHT22;6125;59.628;17.852;2023-02-20T11:44:05;3.70;99.90
12123;DHT22;6125;59.628;17.852;2023-02-20T11:46:33;3.60;99.90
12123;DHT22;6125;59.628;17.852;2023-02-20T11:49:02;3.60;99.90
12123;DHT22;6125;59.628;17.852;2023-02-20T11:51:32;3.60;99.90
12123;DHT22;6125;59.628;17.852;2023-02-20T11:54:06;3.60;99.90
12123;DHT22;6125;59.628;17.852;2023-02-20T11:56:35;3.60;99.90
12123;DHT22;6125;59.628;17.852;2023-02-20T11:59:27;3.60;99.90
12123;DHT22;6125;59.628;17.852;2023-02-20T12:01:59;3.50;99.90
12123;DHT22;6125;59.628;17.852;2023-02-20T12:04:35;3.50;99.90
12123;DHT22;6125;59.628;17.852;2023-02-20T12:07:16;3.60;99.90
12123;DHT22;6125;59.628;17.852;2023-02-20T12:09:47;3.60;99.90
12123;DHT22;6125;59.628;17.852;2023-02-20T12:12:17;3.50;99.90
12123;DHT22;6125;59.628;17.852;2023-02-20T12:14:48;3.50;99.90
12123;DHT22;6125;59.628;17.852;2023-02-20T12:17:22;3.50;99.90
12123;DHT22;6125;59.628;17.852;2023-02-20T12:19:58;3.60;99.90
12123;DHT22;6125;59.628;17.852;2023-02-20T12:22:33;3.60;99.90
12123;DHT22;6125;59.628;17.852;2023-02-20T12:25:19;3.60;99.90
12123;DHT22;6125;59.628;17.852;2023-02-20T12:27:59;3.60;99.90
12123;DHT22;6125;59.628;17.852;2023-02-20T12:30:39;3.60;99.90
12123;DHT22;6125;59.628;17.852;2023-02-20T12:33:25;3.70;99.90
12123;DHT22;6125;59.628;17.852;2023-02-20T12:36:01;3.70;99.90
12123;DHT22;6125;59.628;17.852;2023-02-20T12:38:40;3.70;99.90
12123;DHT22;6125;59.628;17.852;2023-02-20T12:41:23;3.70;99.90
12123;DHT22;6125;59.628;17.852;2023-02-20T12:46:52;3.80;99.90
12123;DHT22;6125;59.628;17.852;2023-02-20T12:49:51;3.80;99.90
12123;DHT22;6125;59.628;17.852;2023-02-20T12:52:34;3.70;99.90
12123;DHT22;6125;59.628;17.852;2023-02-20T12:55:12;3.70;99.90
12123;DHT22;6125;59.628;17.852;2023-02-20T12:57:47;3.60;99.90
12123;DHT22;6125;59.628;17.852;2023-02-20T13:00:27;3.50;99.90
12123;DHT22;6125;59.628;17.852;2023-02-20T13:03:02;3.50;99.90
12123;DHT22;6125;59.628;17.852;2023-02-20T13:05:34;3.50;99.90
12123;DHT22;6125;59.628;17.852;2023-02-20T13:08:08;3.50;99.90
12123;DHT22;6125;59.628;17.852;2023-02-20T13:10:46;3.40;99.90
12123;DHT22;6125;59.628;17.852;2023-02-20T13:13:14;3.40;99.90
12123;DHT22;6125;59.628;17.852;2023-02-20T13:15:50;3.30;99.90
12123;DHT22;6125;59.628;17.852;2023-02-20T13:18:24;3.30;99.90
12123;DHT22;6125;59.628;17.852;2023-02-20T13:20:56;3.30;99.90
12123;DHT22;6125;59.628;17.852;2023-02-20T13:23:27;3.20;99.90
12123;DHT22;6125;59.628;17.852;2023-02-20T13:25:56;3.20;99.90
12123;DHT22;6125;59.628;17.852;2023-02-20T13:28:36;3.20;99.90
12123;DHT22;6125;59.628;17.852;2023-02-20T13:31:19;3.20;99.90
12123;DHT22;6125;59.628;17.852;2023-02-20T13:33:49;3.10;99.90
12123;DHT22;6125;59.628;17.852;2023-02-20T13:36:36;3.10;99.90
12123;DHT22;6125;59.628;17.852;2023-02-20T13:39:26;3.10;99.90
12123;DHT22;6125;59.628;17.852;2023-02-20T13:42:01;3.10;99.90
12123;DHT22;6125;59.628;17.852;2023-02-20T13:44:41;3.10;99.90
12123;DHT22;6125;59.628;17.852;2023-02-20T13:47:36;3.10;99.90
12123;DHT22;6125;59.628;17.852;2023-02-20T13:50:30;3.20;99.90
12123;DHT22;6125;59.628;17.852;2023-02-20T13:53:04;3.10;99.90
12123;DHT22;6125;59.628;17.852;2023-02-20T13:55:32;3.10;99.90
12123;DHT22;6125;59.628;17.852;2023-02-20T13:58:07;3.10;99.90
12123;DHT22;6125;59.628;17.852;2023-02-20T14:00:45;3.10;99.90
12123;DHT22;6125;59.628;17.852;2023-02-20T14:03:19;3.10;99.90
12123;DHT22;6125;59.628;17.852;2023-02-20T14:06:00;3.10;99.90
12123;DHT22;6125;59.628;17.852;2023-02-20T14:08:27;3.00;99.90
12123;DHT22;6125;59.628;17.852;2023-02-20T14:10:54;2.90;99.90
12123;DHT22;6125;59.628;17.852;2023-02-20T14:13:22;2.90;99.90
12123;DHT22;6125;59.628;17.852;2023-02-20T14:15:51;2.80;99.90
12123;DHT22;6125;59.628;17.852;2023-02-20T14:18:26;2.80;99.90
12123;DHT22;6125;59.628;17.852;2023-02-20T14:20:57;2.80;99.90
12123;DHT22;6125;59.628;17.852;2023-02-20T14:23:27;2.70;99.90
12123;DHT22;6125;59.628;17.852;2023-02-20T14:25:57;2.60;99.90
12123;DHT22;6125;59.628;17.852;2023-02-20T14:28:24;2.60;99.90
12123;DHT22;6125;59.628;17.852;2023-02-20T14:31:09;2.60;99.90
12123;DHT22;6125;59.628;17.852;2023-02-20T14:33:44;2.60;99.90
12123;DHT22;6125;59.628;17.852;2023-02-20T14:39:46;2.50;99.90
12123;DHT22;6125;59.628;17.852;2023-02-20T14:42:17;2.40;99.90
12123;DHT22;6125;59.628;17.852;2023-02-20T14:44:47;2.40;99.90
12123;DHT22;6125;59.628;17.852;2023-02-20T14:47:16;2.30;99.90
12123;DHT22;6125;59.628;17.852;2023-02-20T14:49:45;2.30;99.90
12123;DHT22;6125;59.628;17.852;2023-02-20T14:52:15;2.20;99.90
12123;DHT22;6125;59.628;17.852;2023-02-20T14:54:54;2.20;99.90
12123;DHT22;6125;59.628;17.852;2023-02-20T14:57:22;2.10;99.90
12123;DHT22;6125;59.628;17.852;2023-02-20T14:59:50;2.10;99.90
12123;DHT22;6125;59.628;17.852;2023-02-20T15:02:20;2.10;99.90
12123;DHT22;6125;59.628;17.852;2023-02-20T15:04:50;2.10;99.90
12123;DHT22;6125;59.628;17.852;2023-02-20T15:07:19;2.00;99.90
12123;DHT22;6125;59.628;17.852;2023-02-20T15:09:49;2.00;99.90
12123;DHT22;6125;59.628;17.852;2023-02-20T15:12:22;1.90;99.90
12123;DHT22;6125;59.628;17.852;2023-02-20T15:14:55;1.90;99.90
12123;DHT22;6125;59.628;17.852;2023-02-20T15:17:24;1.90;99.90
12123;DHT22;6125;59.628;17.852;2023-02-20T15:19:54;1.90;99.90
12123;DHT22;6125;59.628;17.852;2023-02-20T15:22:30;1.80;99.90
12123;DHT22;6125;59.628;17.852;2023-02-20T15:25:27;1.80;99.90
12123;DHT22;6125;59.628;17.852;2023-02-20T15:28:06;1.80;99.90
12123;DHT22;6125;59.628;17.852;2023-02-20T15:30:34;1.80;99.90
12123;DHT22;6125;59.628;17.852;2023-02-20T15:33:02;1.80;99.90
12123;DHT22;6125;59.628;17.852;2023-02-20T15:35:31;1.70;99.90
12123;DHT22;6125;59.628;17.852;2023-02-20T15:38:00;1.70;99.90
12123;DHT22;6125;59.628;17.852;2023-02-20T15:40:29;1.70;99.90
12123;DHT22;6125;59.628;17.852;2023-02-20T15:42:57;1.70;99.90
12123;DHT22;6125;59.628;17.852;2023-02-20T15:45:25;1.80;99.90
12123;DHT22;6125;59.628;17.852;2023-02-20T15:47:53;1.70;99.90
12123;DHT22;6125;59.628;17.852;2023-02-20T15:50:20;1.70;99.90
12123;DHT22;6125;59.628;17.852;2023-02-20T15:52:49;1.60;99.90
12123;DHT22;6125;59.628;17.852;2023-02-20T15:55:19;1.60;99.90
12123;DHT22;6125;59.628;17.852;2023-02-20T15:57:47;1.60;99.90
12123;DHT22;6125;59.628;17.852;2023-02-20T16:00:18;1.60;99.90
12123;DHT22;6125;59.628;17.852;2023-02-20T16:02:46;1.60;99.90
12123;DHT22;6125;59.628;17.852;2023-02-20T16:05:13;1.60;99.90
12123;DHT22;6125;59.628;17.852;2023-02-20T16:07:40;1.50;99.90
12123;DHT22;6125;59.628;17.852;2023-02-20T16:10:11;1.50;99.90
12123;DHT22;6125;59.628;17.852;2023-02-20T16:12:40;1.50;99.90
12123;DHT22;6125;59.628;17.852;2023-02-20T16:15:11;1.50;99.90
12123;DHT22;6125;59.628;17.852;2023-02-20T16:17:41;1.50;99.90
12123;DHT22;6125;59.628;17.852;2023-02-20T16:20:13;1.50;99.90
12123;DHT22;6125;59.628;17.852;2023-02-20T16:22:41;1.40;99.90